createdAt,value
2022-11-16T00:02:14.720Z,40.60
2022-11-16T00:04:42.042Z,45.90
2022-11-16T00:07:09.310Z,47.23
2022-11-16T00:09:36.313Z,42.15
2022-11-16T00:12:06.943Z,45.20
2022-11-16T00:14:35.519Z,44.67
2022-11-16T00:17:02.909Z,45.67
2022-11-16T00:19:30.036Z,47.27
2022-11-16T00:21:56.697Z,40.33
2022-11-16T00:24:23.623Z,47.15
2022-11-16T00:26:51.153Z,38.10
2022-11-16T00:29:23.967Z,39.63
2022-11-16T00:31:51.124Z,43.50
2022-11-16T00:34:18.446Z,45.88
2022-11-16T00:36:45.617Z,38.90
2022-11-16T00:39:13.788Z,43.45
2022-11-16T00:41:41.131Z,52.55
2022-11-16T00:44:08.093Z,39.00
2022-11-16T00:46:34.736Z,40.13
2022-11-16T00:49:01.409Z,42.97
2022-11-16T00:51:27.964Z,41.45
2022-11-16T00:53:54.652Z,45.33
2022-11-16T00:56:21.241Z,33.83
2022-11-16T00:58:47.848Z,41.85
2022-11-16T01:01:14.929Z,38.42
2022-11-16T01:03:41.590Z,40.03
2022-11-16T01:06:12.086Z,44.22
2022-11-16T01:08:40.805Z,46.47
2022-11-16T01:11:30.939Z,38.72
2022-11-16T01:13:57.469Z,36.08
2022-11-16T01:16:24.434Z,38.97
2022-11-16T01:18:53.022Z,34.72
2022-11-16T01:21:21.139Z,40.47
2022-11-16T01:23:48.957Z,41.47
2022-11-16T01:26:15.861Z,38.88
2022-11-16T01:28:42.519Z,38.78
2022-11-16T01:34:55.961Z,37.40
2022-11-16T01:37:22.601Z,37.38
2022-11-16T01:39:50.136Z,39.60
2022-11-16T01:42:28.468Z,38.28
2022-11-16T01:45:10.024Z,37.60
2022-11-16T01:47:36.649Z,43.10
2022-11-16T01:50:14.297Z,39.17
2022-11-16T01:52:47.735Z,39.00
2022-11-16T01:55:15.118Z,40.28
2022-11-16T01:57:45.185Z,45.20
2022-11-16T02:00:13.069Z,35.30
2022-11-16T02:02:40.029Z,40.33
2022-11-16T02:05:07.581Z,31.50
2022-11-16T02:08:11.355Z,42.13
2022-11-16T02:10:43.704Z,36.03
2022-11-16T02:13:11.545Z,43.63
2022-11-16T02:15:43.148Z,40.10
2022-11-16T02:18:30.164Z,38.05
2022-11-16T02:21:18.257Z,39.03
2022-11-16T02:24:09.379Z,41.45
2022-11-16T02:26:47.380Z,37.50
2022-11-16T02:29:22.314Z,42.40
2022-11-16T02:32:00.414Z,37.60
2022-11-16T02:34:35.890Z,43.22
2022-11-16T02:37:07.077Z,35.97
2022-11-16T02:39:36.847Z,36.40
2022-11-16T02:42:08.306Z,43.00
2022-11-16T02:44:39.790Z,41.40
2022-11-16T02:47:11.757Z,38.30
2022-11-16T02:49:44.171Z,37.30
2022-11-16T02:52:13.018Z,39.37
2022-11-16T02:54:39.767Z,42.40
2022-11-16T02:57:06.272Z,45.92
2022-11-16T02:59:35.899Z,47.70
2022-11-16T03:02:24.027Z,52.67
2022-11-16T03:04:57.485Z,47.70
2022-11-16T03:07:29.040Z,45.67
2022-11-16T03:09:57.933Z,63.03
2022-11-16T03:12:31.021Z,48.65
2022-11-16T03:15:03.049Z,60.65
2022-11-16T03:17:34.063Z,62.13
2022-11-16T03:20:14.792Z,51.30
2022-11-16T03:22:43.951Z,52.05
2022-11-16T03:25:13.973Z,51.42
2022-11-16T03:27:58.069Z,55.70
2022-11-16T03:30:27.487Z,59.33
2022-11-16T03:33:26.155Z,55.95
2022-11-16T03:35:52.624Z,49.22
2022-11-16T03:38:21.137Z,49.63
2022-11-16T03:40:50.652Z,53.58
2022-11-16T03:43:19.680Z,50.03
2022-11-16T03:45:47.176Z,61.58
2022-11-16T03:48:13.884Z,48.13
2022-11-16T03:50:42.559Z,55.08
2022-11-16T03:53:09.480Z,49.00
2022-11-16T03:55:36.883Z,54.00
2022-11-16T03:58:04.796Z,52.70
2022-11-16T04:00:31.643Z,59.53
2022-11-16T04:02:58.644Z,60.00
2022-11-16T04:05:43.632Z,64.13
2022-11-16T04:08:33.644Z,70.40
2022-11-16T04:11:19.264Z,56.35
2022-11-16T04:14:09.101Z,56.80
2022-11-16T04:16:55.017Z,57.47
2022-11-16T04:19:40.181Z,66.75
2022-11-16T04:22:34.249Z,63.43
2022-11-16T04:25:09.726Z,55.50
2022-11-16T04:27:55.250Z,64.63
2022-11-16T04:30:21.882Z,63.10
2022-11-16T04:33:07.222Z,60.25
2022-11-16T04:36:15.410Z,66.13
2022-11-16T04:38:45.962Z,57.97
2022-11-16T04:41:32.498Z,68.40
2022-11-16T04:43:59.349Z,55.22
2022-11-16T04:46:44.279Z,58.35
2022-11-16T04:49:10.859Z,62.63
2022-11-16T04:51:37.396Z,59.90
2022-11-16T04:54:04.106Z,71.10
2022-11-16T04:56:30.757Z,66.78
2022-11-16T04:58:57.578Z,73.72
2022-11-16T05:01:44.195Z,68.65
2022-11-16T05:04:11.087Z,66.85
2022-11-16T05:06:37.821Z,71.80
2022-11-16T05:09:04.467Z,76.25
2022-11-16T05:11:31.193Z,71.85
2022-11-16T05:13:58.232Z,69.10
2022-11-16T05:16:24.968Z,65.30
2022-11-16T05:19:10.243Z,63.47
2022-11-16T05:21:37.098Z,66.97
2022-11-16T05:24:22.592Z,70.63
2022-11-16T05:26:49.085Z,74.60
2022-11-16T05:29:16.151Z,66.90
2022-11-16T05:31:42.676Z,80.85
2022-11-16T05:34:09.878Z,68.68
2022-11-16T05:36:36.901Z,66.78
2022-11-16T05:39:04.575Z,76.33
2022-11-16T05:41:31.215Z,70.70
2022-11-16T05:43:58.015Z,77.35
2022-11-16T05:46:25.002Z,73.30
2022-11-16T05:48:51.710Z,76.20
2022-11-16T05:51:18.308Z,75.47
2022-11-16T05:53:45.288Z,69.00
2022-11-16T05:56:14.285Z,69.50
2022-11-16T05:58:41.457Z,69.35
2022-11-16T06:01:09.043Z,67.07
2022-11-16T06:03:36.442Z,73.90
2022-11-16T06:06:04.593Z,63.20
2022-11-16T06:08:32.028Z,72.10
2022-11-16T06:11:07.153Z,69.53
2022-11-16T06:13:34.155Z,66.43
2022-11-16T06:16:01.755Z,68.97
2022-11-16T06:18:28.884Z,68.95
2022-11-16T06:20:56.000Z,74.30
2022-11-16T06:23:22.770Z,74.18
2022-11-16T06:25:56.345Z,73.35
2022-11-16T06:28:23.391Z,61.03
2022-11-16T06:30:50.154Z,69.43
2022-11-16T06:33:17.156Z,67.28
2022-11-16T06:35:43.937Z,60.72
2022-11-16T06:38:10.609Z,65.85
2022-11-16T06:40:38.086Z,63.27
2022-11-16T06:43:04.671Z,62.03
2022-11-16T06:45:31.373Z,64.75
2022-11-16T06:47:57.997Z,62.88
2022-11-16T06:50:24.579Z,60.15
2022-11-16T06:52:51.149Z,58.23
2022-11-16T06:55:17.943Z,66.80
2022-11-16T06:57:46.177Z,56.95
2022-11-16T07:00:13.393Z,60.08
2022-11-16T07:02:40.636Z,55.53
2022-11-16T07:05:08.075Z,57.00
2022-11-16T07:07:34.761Z,52.97
2022-11-16T07:10:01.749Z,59.08
2022-11-16T07:12:28.735Z,55.53
2022-11-16T07:14:55.346Z,54.67
2022-11-16T07:17:21.888Z,59.17
2022-11-16T07:19:48.531Z,53.17
2022-11-16T07:22:15.190Z,51.65
2022-11-16T07:24:41.706Z,56.45
2022-11-16T07:27:08.826Z,49.05
2022-11-16T07:29:35.433Z,56.90
2022-11-16T07:32:02.038Z,52.45
2022-11-16T07:34:28.877Z,50.13
2022-11-16T07:36:55.571Z,50.17
2022-11-16T07:39:22.188Z,53.72
2022-11-16T07:41:52.897Z,54.47
2022-11-16T07:44:20.078Z,53.50
2022-11-16T07:46:48.235Z,54.08
2022-11-16T07:49:17.275Z,53.33
2022-11-16T07:51:45.572Z,47.08
2022-11-16T07:54:13.421Z,51.27
2022-11-16T07:56:40.492Z,51.05
2022-11-16T07:59:07.826Z,52.70
2022-11-16T08:01:34.617Z,50.13
2022-11-16T08:04:04.027Z,55.45
2022-11-16T08:06:31.575Z,51.97
2022-11-16T08:08:59.339Z,50.80
2022-11-16T08:11:26.644Z,49.80
2022-11-16T08:13:53.330Z,48.55
2022-11-16T08:16:22.043Z,52.38
2022-11-16T08:18:49.164Z,50.23
2022-11-16T08:21:17.802Z,46.13
2022-11-16T08:23:45.029Z,45.40
2022-11-16T08:26:16.898Z,50.13
2022-11-16T08:28:45.379Z,42.85
2022-11-16T08:31:18.010Z,47.07
2022-11-16T08:33:44.555Z,41.35
2022-11-16T08:36:17.027Z,44.35
2022-11-16T08:38:48.333Z,42.10
2022-11-16T08:41:15.955Z,36.85
2022-11-16T08:43:43.440Z,45.20
2022-11-16T08:46:11.073Z,41.03
2022-11-16T08:48:38.190Z,44.88
2022-11-16T08:51:22.531Z,47.85
2022-11-16T08:53:54.646Z,46.92
2022-11-16T08:56:21.311Z,46.40
2022-11-16T08:58:51.468Z,43.10
2022-11-16T09:01:22.737Z,41.33
2022-11-16T09:03:49.807Z,38.88
2022-11-16T09:06:16.731Z,42.15
2022-11-16T09:08:45.844Z,40.40
2022-11-16T09:11:16.128Z,40.85
2022-11-16T09:13:44.059Z,39.45
2022-11-16T09:16:10.815Z,40.80
2022-11-16T09:18:37.862Z,38.67
2022-11-16T09:21:04.834Z,37.83
2022-11-16T09:23:31.396Z,38.20
2022-11-16T09:26:02.944Z,32.88
2022-11-16T09:28:29.586Z,35.95
2022-11-16T09:31:00.925Z,35.45
2022-11-16T09:33:31.491Z,35.73
2022-11-16T09:36:06.797Z,36.88
2022-11-16T09:39:13.265Z,34.22
2022-11-16T09:42:07.263Z,35.25
2022-11-16T09:45:12.655Z,36.92
2022-11-16T09:47:57.554Z,32.77
2022-11-16T09:50:36.875Z,36.13
2022-11-16T09:53:22.756Z,37.03
2022-11-16T09:55:53.374Z,35.63
2022-11-16T09:58:47.998Z,38.22
2022-11-16T10:01:27.246Z,37.27
2022-11-16T10:04:21.358Z,38.78
2022-11-16T10:06:55.235Z,37.85
2022-11-16T10:09:22.365Z,38.38
2022-11-16T10:11:54.938Z,43.05
2022-11-16T10:14:38.316Z,38.43
2022-11-16T10:17:23.813Z,37.53
2022-11-16T10:20:09.146Z,39.22
2022-11-16T10:22:59.186Z,37.78
2022-11-16T10:26:10.749Z,41.75
2022-11-16T10:29:05.080Z,31.33
2022-11-16T10:31:53.585Z,40.80
2022-11-16T10:34:25.097Z,40.38
2022-11-16T10:36:57.592Z,39.78
2022-11-16T10:39:25.587Z,39.88
2022-11-16T10:41:52.140Z,38.53
2022-11-16T10:44:43.692Z,38.13
2022-11-16T10:47:33.573Z,39.08
2022-11-16T10:50:04.104Z,37.75
2022-11-16T10:52:30.664Z,36.83
2022-11-16T10:54:57.246Z,36.33
2022-11-16T10:57:26.291Z,33.90
2022-11-16T10:59:58.958Z,34.80
2022-11-16T11:02:34.375Z,33.33
2022-11-16T11:05:16.190Z,36.72
2022-11-16T11:07:47.122Z,36.03
2022-11-16T11:10:28.331Z,36.17
2022-11-16T11:13:02.482Z,34.70
2022-11-16T11:15:29.007Z,37.55
2022-11-16T11:18:23.418Z,35.95
2022-11-16T11:21:20.072Z,37.43
2022-11-16T11:23:52.428Z,33.97
2022-11-16T11:26:40.968Z,38.95
2022-11-16T11:29:28.412Z,32.80
2022-11-16T11:32:00.332Z,33.28
2022-11-16T11:34:29.904Z,37.13
2022-11-16T11:37:00.865Z,24.92
2022-11-16T11:39:33.301Z,32.75
2022-11-16T11:42:01.151Z,33.38
2022-11-16T11:44:37.705Z,33.85
2022-11-16T11:50:41.215Z,34.17
2022-11-16T11:53:51.398Z,34.15
2022-11-16T11:56:19.333Z,30.70
2022-11-16T11:58:47.860Z,32.20
2022-11-16T12:01:45.553Z,34.20
2022-11-16T12:04:46.323Z,36.25
2022-11-16T12:07:18.921Z,30.65
2022-11-16T12:09:57.552Z,29.13
2022-11-16T12:12:40.945Z,32.45
2022-11-16T12:15:26.058Z,32.90
2022-11-16T12:18:25.356Z,32.72
2022-11-16T12:21:07.368Z,30.60
2022-11-16T12:23:52.254Z,25.77
2022-11-16T12:26:43.566Z,27.67
2022-11-16T12:29:31.979Z,30.80
2022-11-16T12:32:31.626Z,29.35
2022-11-16T12:35:26.967Z,29.48
2022-11-16T12:37:56.688Z,31.95
2022-11-16T12:40:23.273Z,31.77
2022-11-16T12:43:02.084Z,28.77
2022-11-16T12:45:49.956Z,32.67
2022-11-16T12:48:19.627Z,29.23
2022-11-16T12:51:01.401Z,28.35
2022-11-16T12:53:47.909Z,24.38
2022-11-16T12:56:48.909Z,31.03
2022-11-16T12:59:22.090Z,26.60
2022-11-16T13:02:09.872Z,28.95
2022-11-16T13:04:41.612Z,24.88
2022-11-16T13:07:28.704Z,28.83
2022-11-16T13:10:03.724Z,27.08
2022-11-16T13:12:31.527Z,27.65
2022-11-16T13:15:01.806Z,31.02
2022-11-16T13:17:32.789Z,28.70
2022-11-16T13:20:17.315Z,25.10
2022-11-16T13:22:54.875Z,23.17
2022-11-16T13:25:37.542Z,22.75
2022-11-16T13:28:32.100Z,24.75
2022-11-16T13:31:16.497Z,23.33
2022-11-16T13:33:50.932Z,24.23
2022-11-16T13:36:36.842Z,26.75
2022-11-16T13:39:06.252Z,24.15
2022-11-16T13:41:38.180Z,23.25
2022-11-16T13:44:13.417Z,24.40
2022-11-16T13:47:01.043Z,20.63
2022-11-16T13:49:32.974Z,23.13
2022-11-16T13:52:22.029Z,21.95
2022-11-16T13:54:53.066Z,24.23
2022-11-16T13:57:29.563Z,22.15
2022-11-16T14:00:02.022Z,22.38
2022-11-16T14:02:37.667Z,24.43
2022-11-16T14:05:40.582Z,21.98
2022-11-16T14:08:30.012Z,22.73
2022-11-16T14:10:59.877Z,20.95
2022-11-16T14:13:48.435Z,24.65
2022-11-16T14:16:14.942Z,22.35
2022-11-16T14:18:42.913Z,22.45
2022-11-16T14:21:34.016Z,25.23
2022-11-16T14:24:16.832Z,24.27
2022-11-16T14:27:04.908Z,21.98
2022-11-16T14:29:58.667Z,21.50
2022-11-16T14:32:41.287Z,17.77
2022-11-16T14:35:41.337Z,20.85
2022-11-16T14:38:21.703Z,18.70
2022-11-16T14:40:54.915Z,21.38
2022-11-16T14:43:34.793Z,20.33
2022-11-16T14:46:07.668Z,20.45
2022-11-16T14:48:43.208Z,18.67
2022-11-16T14:51:13.983Z,21.23
2022-11-16T14:53:47.000Z,22.10
2022-11-16T14:56:16.213Z,18.57
2022-11-16T14:59:02.226Z,22.85
2022-11-16T15:01:34.760Z,19.40
2022-11-16T15:04:08.345Z,18.30
2022-11-16T15:06:45.634Z,17.92
2022-11-16T15:09:41.879Z,16.33
2022-11-16T15:12:37.363Z,17.05
2022-11-16T15:15:08.187Z,16.55
2022-11-16T15:17:35.527Z,17.00
2022-11-16T15:20:14.477Z,17.77
2022-11-16T15:22:43.946Z,17.97
2022-11-16T15:25:33.282Z,20.00
2022-11-16T15:28:05.557Z,16.75
2022-11-16T15:30:36.893Z,15.38
2022-11-16T15:33:09.628Z,18.33
2022-11-16T15:35:37.624Z,19.17
2022-11-16T15:38:05.374Z,18.25
2022-11-16T15:40:33.830Z,17.50
2022-11-16T15:43:02.440Z,19.58
2022-11-16T15:45:29.899Z,18.83
2022-11-16T15:47:58.812Z,19.55
2022-11-16T15:50:25.473Z,18.10
2022-11-16T15:52:58.012Z,21.73
2022-11-16T15:55:33.584Z,18.60
2022-11-16T15:58:26.306Z,19.75
2022-11-16T16:00:54.664Z,19.07
2022-11-16T16:03:26.737Z,20.27
2022-11-16T16:05:54.694Z,20.48
2022-11-16T16:08:28.713Z,20.40
2022-11-16T16:11:20.351Z,19.33
2022-11-16T16:14:02.154Z,18.57
2022-11-16T16:16:39.255Z,19.38
2022-11-16T16:19:25.696Z,18.27
2022-11-16T16:21:52.665Z,19.00
2022-11-16T16:24:41.334Z,18.88
2022-11-16T16:27:22.632Z,20.27
2022-11-16T16:29:51.969Z,21.20
2022-11-16T16:32:24.568Z,19.02
2022-11-16T16:34:52.738Z,18.42
2022-11-16T16:37:19.532Z,19.02
2022-11-16T16:39:46.221Z,19.30
2022-11-16T16:42:15.504Z,18.40
2022-11-16T16:44:43.036Z,18.73
2022-11-16T16:47:10.407Z,20.25
2022-11-16T16:49:37.926Z,19.02
2022-11-16T16:52:05.660Z,19.63
2022-11-16T16:54:32.290Z,16.98
2022-11-16T16:57:01.325Z,19.55
2022-11-16T16:59:30.641Z,18.33
2022-11-16T17:01:58.612Z,17.30
2022-11-16T17:04:25.408Z,18.70
2022-11-16T17:06:52.868Z,17.25
2022-11-16T17:09:19.880Z,17.88
2022-11-16T17:11:47.711Z,18.27
2022-11-16T17:14:14.500Z,17.00
2022-11-16T17:16:41.172Z,15.50
2022-11-16T17:19:07.770Z,15.85
2022-11-16T17:21:34.411Z,16.80
2022-11-16T17:24:00.961Z,15.38
2022-11-16T17:26:29.388Z,17.08
2022-11-16T17:28:57.301Z,19.50
2022-11-16T17:31:25.407Z,14.68
2022-11-16T17:33:52.144Z,14.90
2022-11-16T17:36:19.209Z,15.25
2022-11-16T17:38:46.553Z,14.88
2022-11-16T17:41:18.654Z,14.10
2022-11-16T17:43:46.443Z,14.52
2022-11-16T17:46:15.333Z,13.80
2022-11-16T17:48:43.703Z,15.05
2022-11-16T17:51:15.228Z,13.55
2022-11-16T17:53:44.133Z,14.80
2022-11-16T17:56:12.780Z,12.95
2022-11-16T17:58:39.909Z,12.68
2022-11-16T18:01:06.672Z,11.93
2022-11-16T18:03:37.511Z,14.13
2022-11-16T18:06:10.986Z,15.23
2022-11-16T18:08:37.838Z,14.05
2022-11-16T18:11:12.818Z,12.18
2022-11-16T18:13:39.479Z,13.20
2022-11-16T18:16:10.701Z,12.85
2022-11-16T18:18:38.409Z,12.93
2022-11-16T18:21:06.063Z,12.52
2022-11-16T18:23:34.364Z,12.63
2022-11-16T18:26:03.289Z,12.65
2022-11-16T18:28:30.262Z,14.98
2022-11-16T18:31:11.371Z,10.60
2022-11-16T18:33:38.673Z,11.38
2022-11-16T18:36:09.145Z,11.52
2022-11-16T18:38:36.405Z,9.98
2022-11-16T18:41:05.899Z,10.68
2022-11-16T18:43:34.242Z,10.85
2022-11-16T18:46:01.081Z,11.45
2022-11-16T18:48:27.724Z,11.55
2022-11-16T18:51:01.233Z,11.98
2022-11-16T18:53:29.308Z,11.05
2022-11-16T18:55:58.022Z,11.27
2022-11-16T19:01:15.750Z,10.77
2022-11-16T19:03:42.675Z,11.90
2022-11-16T19:06:10.306Z,10.43
2022-11-16T19:08:39.003Z,11.30
2022-11-16T19:11:06.851Z,10.95
2022-11-16T19:13:34.107Z,10.52
2022-11-16T19:16:01.082Z,11.48
2022-11-16T19:18:27.937Z,9.93
2022-11-16T19:21:15.554Z,11.00
2022-11-16T19:23:44.496Z,11.15
2022-11-16T19:26:13.054Z,10.10
2022-11-16T19:28:42.020Z,10.15
2022-11-16T19:31:14.832Z,11.15
2022-11-16T19:33:41.937Z,9.57
2022-11-16T19:36:11.040Z,11.00
2022-11-16T19:38:37.937Z,11.18
2022-11-16T19:41:05.496Z,10.75
2022-11-16T19:43:33.426Z,11.93
2022-11-16T19:46:08.511Z,10.00
2022-11-16T19:48:36.196Z,11.18
2022-11-16T19:51:11.170Z,10.68
2022-11-16T19:53:39.643Z,10.25
2022-11-16T19:56:08.340Z,10.52
2022-11-16T19:58:36.923Z,10.70
2022-11-16T20:01:17.418Z,11.15
2022-11-16T20:03:46.022Z,10.57
2022-11-16T20:06:12.638Z,10.23
2022-11-16T20:08:40.350Z,9.80
2022-11-16T20:11:11.836Z,9.77
2022-11-16T20:13:38.601Z,10.07
2022-11-16T20:16:06.994Z,10.70
2022-11-16T20:18:33.610Z,10.52
2022-11-16T20:21:02.199Z,11.38
2022-11-16T20:23:29.077Z,12.80
2022-11-16T20:25:55.578Z,11.52
2022-11-16T20:28:22.348Z,12.38
2022-11-16T20:30:49.235Z,12.90
2022-11-16T20:33:15.760Z,12.45
2022-11-16T20:35:42.719Z,11.60
2022-11-16T20:38:09.346Z,11.32
2022-11-16T20:40:35.950Z,14.00
2022-11-16T20:43:02.562Z,11.75
2022-11-16T20:45:33.024Z,12.23
2022-11-16T20:47:59.729Z,10.87
2022-11-16T20:50:27.273Z,12.85
2022-11-16T20:52:53.840Z,12.82
2022-11-16T20:55:20.945Z,13.23
2022-11-16T20:57:47.522Z,12.02
2022-11-16T21:00:14.692Z,14.57
2022-11-16T21:02:43.078Z,13.07
2022-11-16T21:05:09.809Z,14.15
2022-11-16T21:07:37.978Z,11.75
2022-11-16T21:10:20.449Z,12.45
2022-11-16T21:13:05.929Z,12.93
2022-11-16T21:15:32.849Z,12.05
2022-11-16T21:18:00.015Z,11.10
2022-11-16T21:20:28.107Z,12.48
2022-11-16T21:22:55.322Z,12.95
2022-11-16T21:25:21.882Z,12.47
2022-11-16T21:27:48.713Z,13.20
2022-11-16T21:30:15.767Z,11.85
2022-11-16T21:32:42.401Z,12.88
2022-11-16T21:35:09.169Z,12.52
2022-11-16T21:37:35.813Z,13.03
2022-11-16T21:40:02.743Z,11.60
2022-11-16T21:42:29.273Z,10.98
2022-11-16T21:44:55.794Z,13.05
2022-11-16T21:47:22.430Z,13.30
2022-11-16T21:50:16.740Z,11.67
2022-11-16T21:52:35.744Z,13.63
2022-11-16T21:55:02.323Z,13.02
2022-11-16T21:57:29.003Z,13.02
2022-11-16T21:59:55.633Z,11.23
2022-11-16T22:02:22.157Z,12.37
2022-11-16T22:05:07.407Z,13.80
2022-11-16T22:07:36.688Z,11.40
2022-11-16T22:10:09.137Z,14.02
2022-11-16T22:12:36.166Z,13.07
2022-11-16T22:15:03.909Z,11.47
2022-11-16T22:17:31.004Z,13.45
2022-11-16T22:19:58.393Z,12.00
2022-11-16T22:22:25.443Z,12.68
2022-11-16T22:24:52.264Z,13.50
2022-11-16T22:27:19.072Z,13.10
2022-11-16T22:29:45.783Z,11.48
2022-11-16T22:32:12.985Z,11.70
2022-11-16T22:34:39.609Z,13.20
2022-11-16T22:37:06.238Z,11.23
2022-11-16T22:39:33.330Z,12.20
2022-11-16T22:42:00.066Z,12.10
2022-11-16T22:44:26.623Z,12.60
2022-11-16T22:46:53.192Z,11.80
2022-11-16T22:49:19.688Z,12.02
2022-11-16T22:51:46.278Z,11.00
2022-11-16T22:54:13.462Z,12.13
2022-11-16T22:56:40.008Z,13.45
2022-11-16T22:59:07.160Z,12.77
2022-11-16T23:01:33.772Z,13.63
2022-11-16T23:04:00.569Z,12.77
2022-11-16T23:06:27.542Z,13.07
2022-11-16T23:08:54.399Z,13.05
2022-11-16T23:11:42.166Z,12.80
2022-11-16T23:14:35.459Z,12.45
2022-11-16T23:17:03.316Z,11.63
2022-11-16T23:19:48.895Z,14.70
2022-11-16T23:22:37.714Z,13.43
2022-11-16T23:25:24.126Z,13.55
2022-11-16T23:27:56.636Z,11.05
2022-11-16T23:30:23.763Z,15.90
2022-11-16T23:32:50.338Z,15.07
2022-11-16T23:35:17.560Z,13.45
2022-11-16T23:37:56.400Z,12.15
2022-11-16T23:40:27.013Z,14.82
2022-11-16T23:43:13.233Z,13.07
2022-11-16T23:45:40.864Z,13.52
2022-11-16T23:48:09.240Z,12.45
2022-11-16T23:50:36.716Z,13.55
2022-11-16T23:53:04.593Z,14.18
2022-11-16T23:55:33.913Z,14.43
2022-11-16T23:58:00.672Z,13.80
